createdAt,value
2022-08-21T00:00:48.661Z,31.33
2022-08-21T00:03:53.563Z,24.67
2022-08-21T00:07:03.462Z,23.75
2022-08-21T00:10:12.728Z,24.73
2022-08-21T00:13:22.722Z,28.70
2022-08-21T00:16:32.816Z,25.00
2022-08-21T00:19:35.264Z,24.83
2022-08-21T00:22:43.883Z,26.60
2022-08-21T00:25:47.187Z,28.50
2022-08-21T00:28:58.962Z,30.63
2022-08-21T00:32:01.160Z,25.52
2022-08-21T00:35:09.725Z,30.63
2022-08-21T00:38:12.254Z,25.13
2022-08-21T00:41:37.687Z,21.55
2022-08-21T00:44:53.673Z,27.90
2022-08-21T00:48:03.834Z,26.13
2022-08-21T00:51:14.081Z,24.95
2022-08-21T00:54:23.863Z,25.60
2022-08-21T00:57:35.023Z,23.63
2022-08-21T01:00:46.769Z,23.35
2022-08-21T01:03:50.150Z,27.20
2022-08-21T01:06:59.727Z,24.88
2022-08-21T01:10:02.081Z,29.13
2022-08-21T01:13:12.880Z,25.33
2022-08-21T01:16:18.026Z,27.70
2022-08-21T01:19:28.879Z,29.70
2022-08-21T01:22:31.162Z,30.67
2022-08-21T01:25:40.847Z,31.58
2022-08-21T01:28:49.120Z,32.30
2022-08-21T01:31:57.825Z,31.08
2022-08-21T01:35:01.713Z,29.52
2022-08-21T01:38:10.724Z,28.90
2022-08-21T01:41:13.000Z,29.42
2022-08-21T01:44:23.032Z,36.92
2022-08-21T01:47:38.661Z,34.92
2022-08-21T01:50:49.209Z,31.63
2022-08-21T01:53:59.104Z,35.13
2022-08-21T01:57:08.832Z,34.38
2022-08-21T02:00:22.726Z,26.40
2022-08-21T02:03:35.609Z,29.65
2022-08-21T02:06:38.094Z,35.35
2022-08-21T02:09:46.885Z,29.90
2022-08-21T02:12:56.080Z,44.60
2022-08-21T02:15:58.882Z,41.75
2022-08-21T02:19:07.823Z,46.03
2022-08-21T02:22:10.101Z,44.28
2022-08-21T02:25:18.729Z,45.35
2022-08-21T02:28:30.703Z,45.55
2022-08-21T02:31:34.558Z,43.45
2022-08-21T02:37:55.581Z,42.17
2022-08-21T02:41:06.720Z,44.70
2022-08-21T02:44:08.920Z,42.28
2022-08-21T02:47:17.786Z,37.42
2022-08-21T02:50:25.066Z,38.05
2022-08-21T02:53:36.838Z,38.22
2022-08-21T02:56:45.729Z,45.60
2022-08-21T02:59:49.075Z,40.70
2022-08-21T03:02:59.100Z,40.45
2022-08-21T03:06:02.093Z,33.67
2022-08-21T03:09:10.823Z,27.08
2022-08-21T03:12:14.110Z,30.88
2022-08-21T03:15:26.826Z,34.15
2022-08-21T03:18:30.125Z,27.15
2022-08-21T03:21:38.830Z,38.63
2022-08-21T03:24:42.908Z,37.92
2022-08-21T03:27:46.810Z,25.98
2022-08-21T03:30:53.097Z,28.25
2022-08-21T03:34:03.704Z,29.50
2022-08-21T03:37:09.904Z,25.63
2022-08-21T03:40:21.692Z,30.00
2022-08-21T03:43:23.963Z,30.45
2022-08-21T03:46:38.700Z,38.42
2022-08-21T03:49:48.870Z,25.80
2022-08-21T03:52:51.174Z,34.20
2022-08-21T03:56:00.823Z,30.30
2022-08-21T03:59:04.660Z,36.92
2022-08-21T04:02:15.725Z,37.10
2022-08-21T04:05:38.151Z,37.03
2022-08-21T04:08:46.829Z,50.47
2022-08-21T04:11:49.400Z,36.67
2022-08-21T04:15:01.830Z,48.17
2022-08-21T04:18:04.093Z,36.33
2022-08-21T04:21:13.725Z,40.40
2022-08-21T04:24:24.821Z,41.35
2022-08-21T04:27:31.904Z,37.00
2022-08-21T04:30:41.862Z,31.63
2022-08-21T04:33:44.026Z,49.30
2022-08-21T04:36:53.727Z,57.28
2022-08-21T04:39:58.504Z,51.63
2022-08-21T04:43:11.878Z,40.25
2022-08-21T04:46:14.080Z,40.77
2022-08-21T04:49:28.733Z,38.90
2022-08-21T04:52:31.439Z,54.47
2022-08-21T04:55:41.758Z,46.97
2022-08-21T04:58:46.073Z,50.72
2022-08-21T05:05:00.180Z,46.35
2022-08-21T05:08:09.715Z,39.85
2022-08-21T05:11:13.297Z,40.42
2022-08-21T05:14:21.737Z,38.70
2022-08-21T05:17:25.521Z,42.22
2022-08-21T05:20:44.810Z,41.53
2022-08-21T05:23:53.806Z,40.17
2022-08-21T05:27:03.975Z,39.03
2022-08-21T05:30:07.093Z,36.63
2022-08-21T05:33:18.812Z,38.43
2022-08-21T05:36:21.363Z,41.40
2022-08-21T05:39:29.826Z,40.08
2022-08-21T05:43:03.795Z,40.10
2022-08-21T05:46:06.338Z,57.28
2022-08-21T05:49:14.807Z,54.08
2022-08-21T05:52:35.943Z,51.88
2022-08-21T05:55:44.271Z,53.40
2022-08-21T05:58:54.923Z,55.05
2022-08-21T06:01:57.007Z,61.83
2022-08-21T06:05:05.745Z,44.83
2022-08-21T06:08:07.911Z,45.17
2022-08-21T06:11:20.780Z,41.17
2022-08-21T06:14:22.938Z,39.65
2022-08-21T06:17:31.821Z,36.15
2022-08-21T06:20:40.816Z,31.52
2022-08-21T06:23:44.076Z,34.55
2022-08-21T06:26:52.711Z,32.90
2022-08-21T06:30:01.715Z,40.15
2022-08-21T06:33:05.098Z,35.58
2022-08-21T06:36:13.810Z,30.33
2022-08-21T06:39:25.535Z,31.52
2022-08-21T06:42:34.168Z,38.15
2022-08-21T06:45:43.818Z,28.52
2022-08-21T06:48:46.110Z,32.35
2022-08-21T06:52:01.886Z,26.83
2022-08-21T06:55:03.950Z,30.15
2022-08-21T06:58:12.797Z,26.17
2022-08-21T07:01:21.834Z,21.27
2022-08-21T07:04:27.119Z,21.15
2022-08-21T07:07:35.801Z,20.63
2022-08-21T07:10:38.306Z,21.60
2022-08-21T07:13:47.710Z,23.13
2022-08-21T07:16:57.635Z,22.25
2022-08-21T07:20:00.920Z,24.95
2022-08-21T07:23:11.825Z,21.45
2022-08-21T07:26:16.135Z,22.45
2022-08-21T07:29:24.736Z,15.45
2022-08-21T07:32:33.808Z,20.60
2022-08-21T07:35:36.079Z,16.73
2022-08-21T07:38:46.584Z,25.42
2022-08-21T07:41:55.699Z,32.15
2022-08-21T07:44:58.369Z,21.73
2022-08-21T07:48:07.796Z,20.05
2022-08-21T07:51:20.133Z,20.45
2022-08-21T07:54:33.293Z,16.20
2022-08-21T07:57:36.141Z,23.52
2022-08-21T08:00:45.728Z,23.45
2022-08-21T08:03:48.552Z,20.85
2022-08-21T08:06:58.784Z,19.20
2022-08-21T08:10:00.912Z,18.13
2022-08-21T08:13:10.816Z,19.02
2022-08-21T08:16:13.262Z,24.92
2022-08-21T08:19:21.893Z,17.23
2022-08-21T08:22:26.057Z,19.00
2022-08-21T08:25:37.051Z,13.80
2022-08-21T08:28:50.726Z,26.17
2022-08-21T08:31:59.874Z,22.85
2022-08-21T08:35:02.211Z,17.10
2022-08-21T08:38:13.871Z,19.23
2022-08-21T08:41:30.613Z,25.02
2022-08-21T08:44:39.797Z,16.73
2022-08-21T08:47:53.725Z,15.88
2022-08-21T08:51:07.714Z,21.83
2022-08-21T08:54:22.102Z,22.27
2022-08-21T08:57:04.754Z,25.35
2022-08-21T09:02:37.862Z,19.40
2022-08-21T09:05:46.687Z,20.95
2022-08-21T09:09:09.753Z,20.20
2022-08-21T09:12:06.721Z,22.95
2022-08-21T09:15:27.191Z,19.67
2022-08-21T09:18:33.736Z,15.80
2022-08-21T09:21:41.000Z,18.10
2022-08-21T09:24:51.713Z,20.63
2022-08-21T09:27:34.114Z,21.30
2022-08-21T09:30:22.831Z,25.00
2022-08-21T09:33:11.729Z,16.85
2022-08-21T09:36:02.807Z,24.27
2022-08-21T09:38:53.792Z,21.33
2022-08-21T09:41:40.131Z,26.60
2022-08-21T09:44:28.824Z,20.67
2022-08-21T09:47:19.095Z,29.38
2022-08-21T09:50:00.855Z,32.30
2022-08-21T09:53:06.685Z,28.40
2022-08-21T09:56:37.803Z,26.42
2022-08-21T09:59:43.654Z,25.65
2022-08-21T10:02:47.799Z,17.40
2022-08-21T10:05:30.371Z,17.05
2022-08-21T10:08:18.802Z,19.05
2022-08-21T10:11:18.752Z,23.20
2022-08-21T10:14:12.815Z,16.52
2022-08-21T10:17:16.732Z,16.25
2022-08-21T10:20:17.823Z,24.90
2022-08-21T10:23:23.980Z,19.63
2022-08-21T10:26:46.815Z,18.83
2022-08-21T10:30:00.711Z,19.35
2022-08-21T10:36:02.175Z,19.15
2022-08-21T10:39:07.039Z,20.92
2022-08-21T10:42:19.542Z,27.02
2022-08-21T10:45:30.812Z,25.15
2022-08-21T10:48:24.093Z,20.85
2022-08-21T10:51:36.855Z,22.10
2022-08-21T10:54:53.118Z,24.07
2022-08-21T10:57:40.893Z,17.58
2022-08-21T11:01:06.732Z,18.85
2022-08-21T11:04:09.763Z,21.45
2022-08-21T11:07:21.071Z,24.63
2022-08-21T11:10:06.724Z,21.75
2022-08-21T11:12:57.013Z,16.55
2022-08-21T11:16:15.823Z,16.52
2022-08-21T11:19:32.012Z,17.65
2022-08-21T11:22:22.815Z,20.20
2022-08-21T11:25:23.096Z,18.75
2022-08-21T11:28:14.838Z,22.98
2022-08-21T11:31:21.841Z,21.40
2022-08-21T11:34:16.015Z,15.60
2022-08-21T11:37:40.728Z,19.85
2022-08-21T11:40:44.117Z,18.77
2022-08-21T11:43:53.744Z,19.67
2022-08-21T11:47:14.807Z,15.25
2022-08-21T11:50:37.816Z,20.60
2022-08-21T11:53:44.989Z,16.83
2022-08-21T11:56:53.754Z,15.98
2022-08-21T11:59:52.089Z,24.58
2022-08-21T12:02:42.868Z,17.20
2022-08-21T12:05:51.652Z,18.20
2022-08-21T12:08:43.797Z,22.20
2022-08-21T12:11:32.738Z,26.48
2022-08-21T12:14:24.719Z,21.67
2022-08-21T12:17:18.580Z,16.63
2022-08-21T12:20:32.731Z,19.60
2022-08-21T12:23:21.097Z,20.52
2022-08-21T12:26:19.768Z,14.82
2022-08-21T12:29:25.206Z,17.85
2022-08-21T12:32:32.711Z,13.05
2022-08-21T12:35:54.785Z,24.55
2022-08-21T12:39:12.076Z,16.92
2022-08-21T12:42:02.822Z,19.85
2022-08-21T12:45:03.105Z,16.73
2022-08-21T12:48:00.720Z,20.65
2022-08-21T12:50:58.652Z,24.92
2022-08-21T12:54:07.809Z,28.20
2022-08-21T12:57:12.103Z,17.48
2022-08-21T12:59:54.844Z,18.20
2022-08-21T13:02:53.739Z,20.35
2022-08-21T13:05:51.653Z,19.27
2022-08-21T13:08:50.810Z,18.23
2022-08-21T13:11:34.869Z,16.73
2022-08-21T13:14:35.756Z,15.73
2022-08-21T13:17:36.182Z,21.45
2022-08-21T13:20:41.852Z,19.67
2022-08-21T13:23:35.241Z,22.67
2022-08-21T13:26:28.884Z,24.27
2022-08-21T13:29:14.990Z,22.48
2022-08-21T13:32:15.786Z,25.52
2022-08-21T13:35:04.773Z,21.63
2022-08-21T13:37:50.776Z,21.35
2022-08-21T13:40:48.853Z,21.65
2022-08-21T13:43:36.133Z,17.35
2022-08-21T13:46:26.864Z,23.50
2022-08-21T13:49:11.906Z,20.15
2022-08-21T13:52:00.817Z,22.42
2022-08-21T13:54:49.057Z,19.70
2022-08-21T13:57:40.718Z,17.55
2022-08-21T14:00:38.498Z,18.92
2022-08-21T14:03:51.849Z,24.33
2022-08-21T14:06:51.711Z,22.05
2022-08-21T14:09:58.809Z,20.17
2022-08-21T14:12:53.185Z,20.27
2022-08-21T14:15:38.864Z,32.40
2022-08-21T14:18:21.935Z,21.85
2022-08-21T14:21:24.967Z,24.08
2022-08-21T14:24:58.508Z,21.90
2022-08-21T14:30:44.472Z,20.98
2022-08-21T14:33:43.183Z,22.65
2022-08-21T14:36:31.083Z,24.20
2022-08-21T14:39:19.863Z,27.13
2022-08-21T14:42:11.846Z,24.73
2022-08-21T14:44:58.072Z,33.15
2022-08-21T14:47:48.911Z,22.85
2022-08-21T14:50:34.184Z,22.40
2022-08-21T14:53:30.768Z,20.90
2022-08-21T14:56:14.044Z,23.35
2022-08-21T14:59:04.930Z,23.60
2022-08-21T15:01:54.913Z,24.42
2022-08-21T15:04:37.722Z,27.67
2022-08-21T15:07:34.970Z,20.45
2022-08-21T15:10:25.880Z,22.63
2022-08-21T15:13:16.952Z,26.95
2022-08-21T15:16:07.221Z,24.60
2022-08-21T15:18:50.910Z,21.17
2022-08-21T15:21:40.061Z,21.13
2022-08-21T15:24:22.828Z,30.17
2022-08-21T15:27:16.749Z,20.63
2022-08-21T15:30:00.601Z,27.45
2022-08-21T15:32:50.812Z,28.92
2022-08-21T15:35:34.240Z,35.75
2022-08-21T15:41:15.929Z,29.17
2022-08-21T15:44:00.053Z,37.20
2022-08-21T15:49:41.350Z,28.75
2022-08-21T15:52:27.893Z,28.42
2022-08-21T15:55:20.730Z,31.70
2022-08-21T15:58:05.907Z,25.00
2022-08-21T16:00:49.113Z,24.77
2022-08-21T16:03:37.955Z,27.42
2022-08-21T16:06:38.597Z,23.77
2022-08-21T16:09:37.761Z,25.65
2022-08-21T16:12:41.811Z,25.27
2022-08-21T16:15:37.815Z,33.00
2022-08-21T16:18:34.783Z,23.73
2022-08-21T16:21:30.896Z,33.08
2022-08-21T16:24:13.144Z,29.02
2022-08-21T16:27:03.827Z,28.75
2022-08-21T16:29:50.591Z,32.00
2022-08-21T16:32:39.863Z,31.35
2022-08-21T16:35:23.581Z,35.83
2022-08-21T16:38:12.843Z,46.58
2022-08-21T16:40:55.389Z,35.80
2022-08-21T16:43:45.830Z,32.53
2022-08-21T16:46:36.145Z,40.05
2022-08-21T16:49:17.846Z,38.40
2022-08-21T16:52:06.856Z,34.60
2022-08-21T16:54:49.230Z,34.58
2022-08-21T16:57:40.911Z,30.70
2022-08-21T17:00:29.873Z,28.38
2022-08-21T17:03:19.811Z,26.80
2022-08-21T17:06:10.411Z,26.88
2022-08-21T17:09:01.653Z,22.90
2022-08-21T17:11:56.843Z,22.17
2022-08-21T17:14:39.194Z,23.10
2022-08-21T17:17:28.983Z,29.23
2022-08-21T17:20:24.745Z,19.77
2022-08-21T17:23:19.943Z,16.30
2022-08-21T17:26:15.636Z,22.60
2022-08-21T17:29:04.810Z,22.63
2022-08-21T17:31:48.975Z,24.17
2022-08-21T17:34:37.823Z,40.17
2022-08-21T17:37:20.165Z,34.50
2022-08-21T17:40:08.738Z,25.67
2022-08-21T17:43:00.896Z,30.23
2022-08-21T17:45:51.801Z,18.73
2022-08-21T17:48:34.063Z,25.23
2022-08-21T17:51:25.844Z,28.10
2022-08-21T17:54:08.111Z,24.35
2022-08-21T17:56:57.747Z,18.63
2022-08-21T17:59:41.154Z,29.92
2022-08-21T18:02:30.847Z,20.60
2022-08-21T18:05:16.659Z,21.85
2022-08-21T18:08:05.880Z,22.25
2022-08-21T18:10:51.318Z,22.63
2022-08-21T18:13:44.736Z,30.85
2022-08-21T18:16:34.808Z,22.25
2022-08-21T18:19:26.334Z,26.92
2022-08-21T18:22:08.830Z,18.33
2022-08-21T18:25:05.650Z,23.70
2022-08-21T18:28:02.791Z,17.70
2022-08-21T18:30:52.073Z,21.23
2022-08-21T18:33:33.845Z,28.40
2022-08-21T18:36:22.106Z,23.75
2022-08-21T18:39:32.728Z,14.55
2022-08-21T18:42:18.128Z,29.40
2022-08-21T18:45:07.833Z,22.25
2022-08-21T18:48:00.066Z,25.48
2022-08-21T18:50:44.705Z,23.88
2022-08-21T18:53:36.814Z,16.63
2022-08-21T18:56:21.285Z,20.85
2022-08-21T18:59:11.825Z,20.52
2022-08-21T19:01:54.375Z,26.50
2022-08-21T19:04:45.178Z,20.77
2022-08-21T19:07:27.110Z,18.08
2022-08-21T19:10:27.384Z,20.33
2022-08-21T19:13:18.719Z,23.83
2022-08-21T19:16:09.617Z,14.18
2022-08-21T19:18:52.727Z,22.52
2022-08-21T19:21:42.024Z,15.77
2022-08-21T19:24:26.389Z,22.13
2022-08-21T19:27:34.039Z,21.17
2022-08-21T19:30:22.902Z,22.75
2022-08-21T19:33:05.229Z,23.58
2022-08-21T19:35:57.882Z,22.17
2022-08-21T19:38:40.230Z,26.65
2022-08-21T19:41:30.902Z,18.58
2022-08-21T19:44:16.072Z,29.30
2022-08-21T19:47:07.849Z,31.17
2022-08-21T19:49:57.348Z,22.52
2022-08-21T19:52:51.412Z,24.13
2022-08-21T19:55:40.168Z,24.52
2022-08-21T19:58:50.030Z,21.20
2022-08-21T20:01:40.932Z,26.20
2022-08-21T20:04:24.196Z,23.85
2022-08-21T20:07:15.856Z,25.00
2022-08-21T20:10:07.556Z,27.27
2022-08-21T20:13:03.735Z,26.55
2022-08-21T20:15:46.475Z,28.20
2022-08-21T20:18:35.655Z,30.92
2022-08-21T20:21:24.971Z,28.05
2022-08-21T20:24:08.838Z,26.13
2022-08-21T20:26:51.335Z,25.35
2022-08-21T20:32:44.826Z,25.13
2022-08-21T20:35:34.637Z,27.23
2022-08-21T20:38:17.116Z,27.65
2022-08-21T20:41:09.966Z,20.75
2022-08-21T20:44:05.043Z,25.60
2022-08-21T20:46:53.734Z,26.08
2022-08-21T20:49:49.762Z,28.73
2022-08-21T20:52:42.723Z,31.45
2022-08-21T20:55:29.573Z,28.17
2022-08-21T20:58:46.640Z,21.30
2022-08-21T21:01:31.018Z,20.30
2022-08-21T21:04:40.768Z,24.88
2022-08-21T21:07:32.173Z,27.50
2022-08-21T21:10:30.743Z,25.42
2022-08-21T21:13:31.837Z,30.95
2022-08-21T21:16:40.949Z,22.52
2022-08-21T21:19:54.196Z,23.15
2022-08-21T21:22:52.770Z,26.75
2022-08-21T21:25:54.257Z,27.00
2022-08-21T21:28:56.894Z,25.88
2022-08-21T21:31:46.851Z,25.83
2022-08-21T21:34:32.097Z,28.38
2022-08-21T21:37:38.732Z,39.83
2022-08-21T21:40:45.823Z,30.20
2022-08-21T21:43:54.009Z,22.15
2022-08-21T21:47:06.710Z,21.73
2022-08-21T21:50:26.863Z,25.45
2022-08-21T21:53:36.095Z,20.63
2022-08-21T21:56:36.833Z,24.20
2022-08-21T21:59:38.453Z,34.00
2022-08-21T22:02:34.873Z,25.00
2022-08-21T22:08:50.760Z,24.70
2022-08-21T22:12:02.050Z,21.70
2022-08-21T22:14:49.830Z,26.88
2022-08-21T22:17:54.140Z,28.67
2022-08-21T22:20:48.820Z,26.13
2022-08-21T22:23:43.834Z,31.92
2022-08-21T22:26:29.094Z,21.50
2022-08-21T22:29:26.768Z,31.60
2022-08-21T22:32:24.668Z,20.10
2022-08-21T22:35:21.855Z,23.88
2022-08-21T22:38:07.086Z,20.15
2022-08-21T22:40:55.824Z,21.00
2022-08-21T22:43:38.139Z,29.33
2022-08-21T22:46:52.819Z,25.65
2022-08-21T22:53:15.920Z,31.15
2022-08-21T22:56:07.137Z,38.55
2022-08-21T22:59:05.835Z,41.22
2022-08-21T23:01:53.132Z,41.33
2022-08-21T23:07:50.212Z,36.95
2022-08-21T23:10:56.827Z,47.30
2022-08-21T23:13:49.052Z,47.33
2022-08-21T23:16:47.351Z,46.35
2022-08-21T23:19:40.053Z,38.20
2022-08-21T23:22:47.813Z,45.80
2022-08-21T23:25:54.009Z,42.53
2022-08-21T23:28:54.738Z,42.17
2022-08-21T23:32:12.679Z,35.70
2022-08-21T23:35:55.828Z,38.70
2022-08-21T23:39:02.141Z,42.40
2022-08-21T23:41:59.793Z,41.22
2022-08-21T23:45:17.367Z,40.00
2022-08-21T23:48:37.738Z,40.97
2022-08-21T23:51:43.939Z,39.70
2022-08-21T23:54:52.119Z,35.75
2022-08-21T23:58:04.855Z,37.75
